createdAt,value
2022-09-28T00:01:16.726Z,44.02
2022-09-28T00:03:45.090Z,44.08
2022-09-28T00:06:15.833Z,43.96
2022-09-28T00:08:45.664Z,44.21
2022-09-28T00:11:15.716Z,43.96
2022-09-28T00:13:44.599Z,44.18
2022-09-28T00:16:14.836Z,43.95
2022-09-28T00:18:43.735Z,43.99
2022-09-28T00:21:14.100Z,44.02
2022-09-28T00:23:56.594Z,44.00
2022-09-28T00:26:26.585Z,44.04
2022-09-28T00:28:55.313Z,44.03
2022-09-28T00:31:23.830Z,44.39
2022-09-28T00:33:52.037Z,44.07
2022-09-28T00:36:20.542Z,44.14
2022-09-28T00:38:48.575Z,44.38
2022-09-28T00:41:17.348Z,44.23
2022-09-28T00:43:46.716Z,44.36
2022-09-28T00:46:20.294Z,44.36
2022-09-28T00:48:56.069Z,44.29
2022-09-28T00:51:26.152Z,44.37
2022-09-28T00:53:56.139Z,44.56
2022-09-28T00:56:28.597Z,44.60
2022-09-28T00:59:01.025Z,44.84
2022-09-28T01:01:29.321Z,44.73
2022-09-28T01:03:59.352Z,44.54
2022-09-28T01:06:31.230Z,44.96
2022-09-28T01:09:02.972Z,44.66
2022-09-28T01:11:33.138Z,44.80
2022-09-28T01:14:04.733Z,44.84
2022-09-28T01:16:40.786Z,44.96
2022-09-28T01:19:47.252Z,44.92
2022-09-28T01:22:28.469Z,44.87
2022-09-28T01:25:07.718Z,44.83
2022-09-28T01:27:41.566Z,44.48
2022-09-28T01:30:12.985Z,44.73
2022-09-28T01:32:50.157Z,45.00
2022-09-28T01:35:21.983Z,44.70
2022-09-28T01:37:54.241Z,44.93
2022-09-28T01:40:25.365Z,44.76
2022-09-28T01:42:59.764Z,44.71
2022-09-28T01:45:31.098Z,44.65
2022-09-28T01:48:06.108Z,45.01
2022-09-28T01:50:39.430Z,45.12
2022-09-28T01:53:13.538Z,44.89
2022-09-28T01:55:46.490Z,45.00
2022-09-28T01:58:20.225Z,45.07
2022-09-28T02:00:53.641Z,45.18
2022-09-28T02:03:26.532Z,45.26
2022-09-28T02:06:06.780Z,45.26
2022-09-28T02:08:37.447Z,45.17
2022-09-28T02:11:10.777Z,45.02
2022-09-28T02:13:43.772Z,45.23
2022-09-28T02:16:18.359Z,45.00
2022-09-28T02:18:47.243Z,45.13
2022-09-28T02:21:23.425Z,44.88
2022-09-28T02:23:56.794Z,45.09
2022-09-28T02:26:30.660Z,45.15
2022-09-28T02:29:00.329Z,45.41
2022-09-28T02:31:28.823Z,45.04
2022-09-28T02:33:58.609Z,44.88
2022-09-28T02:36:27.519Z,45.28
2022-09-28T02:38:55.830Z,45.32
2022-09-28T02:41:36.256Z,44.93
2022-09-28T02:44:16.070Z,45.29
2022-09-28T02:46:52.967Z,45.05
2022-09-28T02:49:36.013Z,45.15
2022-09-28T02:52:25.894Z,45.14
2022-09-28T02:55:14.408Z,45.12
2022-09-28T02:57:54.238Z,45.18
2022-09-28T03:00:25.180Z,45.56
2022-09-28T03:03:02.496Z,45.43
2022-09-28T03:05:39.895Z,45.59
2022-09-28T03:08:17.713Z,45.50
2022-09-28T03:10:50.119Z,45.27
2022-09-28T03:13:19.127Z,45.53
2022-09-28T03:15:49.122Z,45.24
2022-09-28T03:18:18.670Z,45.57
2022-09-28T03:20:47.549Z,45.44
2022-09-28T03:23:30.725Z,45.27
2022-09-28T03:26:00.337Z,45.34
2022-09-28T03:28:28.304Z,45.34
2022-09-28T03:30:58.226Z,45.29
2022-09-28T03:33:26.209Z,45.39
2022-09-28T03:35:54.466Z,44.98
2022-09-28T03:38:22.798Z,45.23
2022-09-28T03:40:55.196Z,45.25
2022-09-28T03:43:24.516Z,44.98
2022-09-28T03:45:55.101Z,45.07
2022-09-28T03:48:31.223Z,44.92
2022-09-28T03:51:01.732Z,45.05
2022-09-28T03:53:30.695Z,44.66
2022-09-28T03:56:03.897Z,44.77
2022-09-28T03:58:32.664Z,44.66
2022-09-28T04:01:03.406Z,44.92
2022-09-28T04:03:32.994Z,44.85
2022-09-28T04:06:01.690Z,44.61
2022-09-28T04:08:29.816Z,44.62
2022-09-28T04:10:58.581Z,44.60
2022-09-28T04:13:27.093Z,44.72
2022-09-28T04:15:56.565Z,44.77
2022-09-28T04:18:25.266Z,44.67
2022-09-28T04:21:32.744Z,44.73
2022-09-28T04:24:06.177Z,44.89
2022-09-28T04:26:34.070Z,44.68
2022-09-28T04:29:16.127Z,44.81
2022-09-28T04:32:02.517Z,44.92
2022-09-28T04:34:43.175Z,44.89
2022-09-28T04:37:13.674Z,44.93
2022-09-28T04:39:46.170Z,44.75
2022-09-28T04:42:18.165Z,44.84
2022-09-28T04:44:46.452Z,44.60
2022-09-28T04:47:14.404Z,44.89
2022-09-28T04:50:00.815Z,44.61
2022-09-28T04:52:38.925Z,44.70
2022-09-28T04:55:08.640Z,44.71
2022-09-28T04:57:36.897Z,44.62
2022-09-28T05:00:05.967Z,44.58
2022-09-28T05:02:35.961Z,44.59
2022-09-28T05:05:23.085Z,44.61
2022-09-28T05:08:19.362Z,44.47
2022-09-28T05:10:47.470Z,44.46
2022-09-28T05:13:18.668Z,44.05
2022-09-28T05:15:46.750Z,44.32
2022-09-28T05:18:15.153Z,44.32
2022-09-28T05:20:48.682Z,44.20
2022-09-28T05:23:16.612Z,44.25
2022-09-28T05:25:46.407Z,44.23
2022-09-28T05:28:25.227Z,44.26
2022-09-28T05:31:11.913Z,44.10
2022-09-28T05:33:57.260Z,44.12
2022-09-28T05:36:26.920Z,43.87
2022-09-28T05:38:55.179Z,44.17
2022-09-28T05:41:24.439Z,44.12
2022-09-28T05:43:52.751Z,44.11
2022-09-28T05:46:21.854Z,43.84
2022-09-28T05:48:51.243Z,43.97
2022-09-28T05:51:19.642Z,43.75
2022-09-28T05:53:47.965Z,43.65
2022-09-28T05:56:17.269Z,43.83
2022-09-28T05:58:47.461Z,43.89
2022-09-28T06:01:17.646Z,43.83
2022-09-28T06:03:46.122Z,43.74
2022-09-28T06:06:14.099Z,43.53
2022-09-28T06:08:46.194Z,43.93
2022-09-28T06:11:34.691Z,43.57
2022-09-28T06:14:13.922Z,43.42
2022-09-28T06:16:43.954Z,43.82
2022-09-28T06:19:13.546Z,43.97
2022-09-28T06:22:04.742Z,43.55
2022-09-28T06:24:36.101Z,43.92
2022-09-28T06:27:03.997Z,43.89
2022-09-28T06:29:33.337Z,43.80
2022-09-28T06:32:01.331Z,43.81
2022-09-28T06:34:30.369Z,43.65
2022-09-28T06:36:58.377Z,43.60
2022-09-28T06:39:26.432Z,43.87
2022-09-28T06:41:54.368Z,43.87
2022-09-28T06:44:22.595Z,43.43
2022-09-28T06:47:10.159Z,43.79
2022-09-28T06:50:04.725Z,43.71
2022-09-28T06:52:52.868Z,43.87
2022-09-28T06:55:50.081Z,43.92
2022-09-28T06:58:20.832Z,43.90
2022-09-28T07:00:50.817Z,43.69
2022-09-28T07:03:22.386Z,44.01
2022-09-28T07:06:12.478Z,44.12
2022-09-28T07:09:20.390Z,43.77
2022-09-28T07:12:19.697Z,43.96
2022-09-28T07:14:56.274Z,43.66
2022-09-28T07:17:25.532Z,43.51
2022-09-28T07:19:58.726Z,43.50
2022-09-28T07:22:40.146Z,43.48
2022-09-28T07:25:10.654Z,43.25
2022-09-28T07:27:44.446Z,43.12
2022-09-28T07:30:34.269Z,43.01
2022-09-28T07:33:12.596Z,43.07
2022-09-28T07:35:54.365Z,43.04
2022-09-28T07:38:26.086Z,43.00
2022-09-28T07:41:11.780Z,43.19
2022-09-28T07:43:45.279Z,43.47
2022-09-28T07:46:13.276Z,43.64
2022-09-28T07:49:00.617Z,43.46
2022-09-28T07:51:44.797Z,43.63
2022-09-28T07:54:23.970Z,43.47
2022-09-28T07:57:10.668Z,43.24
2022-09-28T07:59:56.910Z,43.08
2022-09-28T08:02:44.425Z,43.13
2022-09-28T08:05:16.324Z,43.05
2022-09-28T08:07:46.023Z,43.10
2022-09-28T08:10:14.199Z,42.72
2022-09-28T08:12:58.069Z,42.86
2022-09-28T08:15:38.293Z,42.53
2022-09-28T08:18:18.104Z,42.30
2022-09-28T08:21:03.661Z,42.29
2022-09-28T08:23:33.281Z,41.92
2022-09-28T08:26:01.229Z,41.81
2022-09-28T08:28:29.163Z,41.68
2022-09-28T08:31:02.060Z,41.55
2022-09-28T08:33:33.000Z,41.40
2022-09-28T08:36:19.688Z,41.18
2022-09-28T08:39:03.849Z,41.34
2022-09-28T08:41:59.220Z,41.17
2022-09-28T08:45:12.488Z,40.95
2022-09-28T08:48:19.494Z,40.96
2022-09-28T08:51:18.503Z,40.98
2022-09-28T08:54:13.697Z,40.73
2022-09-28T08:56:55.343Z,40.61
2022-09-28T08:59:27.284Z,40.60
2022-09-28T09:02:04.876Z,40.75
2022-09-28T09:04:35.109Z,40.54
2022-09-28T09:07:58.002Z,40.28
2022-09-28T09:10:44.595Z,40.22
2022-09-28T09:13:34.092Z,40.09
2022-09-28T09:16:13.161Z,40.12
2022-09-28T09:19:14.025Z,40.22
2022-09-28T09:22:10.160Z,40.17
2022-09-28T09:24:49.144Z,40.20
2022-09-28T09:27:38.063Z,40.23
2022-09-28T09:30:10.853Z,40.20
2022-09-28T09:32:54.895Z,40.29
2022-09-28T09:35:38.841Z,40.07
2022-09-28T09:38:50.099Z,40.10
2022-09-28T09:41:49.241Z,39.90
2022-09-28T09:44:52.384Z,39.95
2022-09-28T09:47:51.060Z,40.10
2022-09-28T09:50:30.170Z,40.08
2022-09-28T09:53:03.857Z,39.80
2022-09-28T09:55:38.471Z,39.93
2022-09-28T09:58:31.550Z,39.88
2022-09-28T10:01:33.467Z,39.83
2022-09-28T10:04:28.764Z,39.77
2022-09-28T10:07:04.774Z,39.86
2022-09-28T10:09:39.602Z,39.84
2022-09-28T10:12:26.776Z,39.98
2022-09-28T10:14:56.068Z,39.67
2022-09-28T10:17:28.772Z,39.54
2022-09-28T10:20:17.093Z,39.78
2022-09-28T10:23:18.561Z,39.46
2022-09-28T10:25:48.730Z,39.44
2022-09-28T10:28:22.481Z,39.59
2022-09-28T10:30:50.738Z,39.49
2022-09-28T10:33:34.624Z,39.63
2022-09-28T10:36:08.489Z,39.43
2022-09-28T10:38:36.622Z,39.39
2022-09-28T10:41:16.704Z,39.28
2022-09-28T10:44:07.119Z,39.23
2022-09-28T10:46:40.895Z,39.31
2022-09-28T10:49:18.669Z,39.27
2022-09-28T10:51:56.325Z,39.26
2022-09-28T10:54:33.548Z,39.21
2022-09-28T10:57:02.533Z,39.07
2022-09-28T10:59:44.422Z,39.32
2022-09-28T11:02:32.309Z,39.07
2022-09-28T11:05:20.306Z,39.07
2022-09-28T11:07:49.433Z,39.22
2022-09-28T11:10:25.205Z,39.15
2022-09-28T11:12:57.111Z,39.25
2022-09-28T11:15:29.901Z,38.90
2022-09-28T11:18:19.930Z,38.81
2022-09-28T11:20:49.594Z,39.01
2022-09-28T11:23:27.133Z,38.67
2022-09-28T11:26:01.022Z,38.71
2022-09-28T11:28:33.624Z,38.78
2022-09-28T11:31:09.132Z,38.80
2022-09-28T11:34:15.162Z,38.33
2022-09-28T11:37:22.850Z,38.54
2022-09-28T11:40:03.288Z,38.31
2022-09-28T11:42:42.898Z,38.32
2022-09-28T11:45:27.447Z,38.44
2022-09-28T11:48:00.594Z,38.23
2022-09-28T11:50:34.162Z,38.09
2022-09-28T11:53:17.383Z,38.17
2022-09-28T11:55:49.627Z,38.25
2022-09-28T11:58:27.025Z,38.23
2022-09-28T12:01:00.845Z,38.51
2022-09-28T12:03:43.886Z,38.58
2022-09-28T12:06:17.412Z,38.61
2022-09-28T12:08:53.833Z,38.83
2022-09-28T12:11:45.172Z,38.74
2022-09-28T12:14:36.900Z,38.69
2022-09-28T12:17:15.375Z,38.93
2022-09-28T12:19:50.605Z,38.67
2022-09-28T12:22:24.194Z,38.85
2022-09-28T12:24:58.319Z,38.50
2022-09-28T12:27:33.709Z,38.11
2022-09-28T12:30:06.651Z,38.14
2022-09-28T12:32:39.386Z,37.84
2022-09-28T12:35:13.125Z,38.07
2022-09-28T12:38:20.658Z,37.79
2022-09-28T12:40:56.089Z,37.84
2022-09-28T12:43:34.483Z,37.56
2022-09-28T12:46:17.307Z,37.96
2022-09-28T12:52:00.394Z,37.69
2022-09-28T12:54:53.833Z,37.35
2022-09-28T12:57:39.069Z,37.33
2022-09-28T13:00:11.570Z,37.15
2022-09-28T13:03:10.275Z,37.17
2022-09-28T13:06:25.116Z,37.24
2022-09-28T13:09:19.983Z,37.46
2022-09-28T13:12:05.161Z,37.22
2022-09-28T13:15:16.112Z,37.26
2022-09-28T13:17:53.460Z,36.97
2022-09-28T13:20:33.053Z,36.71
2022-09-28T13:23:12.732Z,36.63
2022-09-28T13:25:45.792Z,36.76
2022-09-28T13:28:17.045Z,36.72
2022-09-28T13:30:47.745Z,36.46
2022-09-28T13:33:22.259Z,36.53
2022-09-28T13:35:50.415Z,36.37
2022-09-28T13:38:50.937Z,36.53
2022-09-28T13:41:24.742Z,36.40
2022-09-28T13:44:24.965Z,36.28
2022-09-28T13:47:07.763Z,36.50
2022-09-28T13:49:47.055Z,36.71
2022-09-28T13:52:30.413Z,36.56
2022-09-28T13:55:11.733Z,36.75
2022-09-28T13:57:46.352Z,36.72
2022-09-28T14:00:23.221Z,36.35
2022-09-28T14:03:01.698Z,36.22
2022-09-28T14:06:11.016Z,36.36
2022-09-28T14:08:45.020Z,36.20
2022-09-28T14:11:43.870Z,36.07
2022-09-28T14:14:30.275Z,35.78
2022-09-28T14:17:50.471Z,35.70
2022-09-28T14:20:25.003Z,35.59
2022-09-28T14:23:16.090Z,35.59
2022-09-28T14:25:45.971Z,35.41
2022-09-28T14:28:38.389Z,35.39
2022-09-28T14:31:15.797Z,35.22
2022-09-28T14:33:54.810Z,35.19
2022-09-28T14:36:47.454Z,34.93
2022-09-28T14:39:39.635Z,34.98
2022-09-28T14:42:15.755Z,35.35
2022-09-28T14:45:35.864Z,36.86
2022-09-28T14:48:20.295Z,38.17
2022-09-28T14:50:49.919Z,38.40
2022-09-28T14:53:28.946Z,38.55
2022-09-28T14:56:00.799Z,38.91
2022-09-28T14:58:32.544Z,39.49
2022-09-28T15:01:05.962Z,39.72
2022-09-28T15:03:36.560Z,39.96
2022-09-28T15:06:04.523Z,40.59
2022-09-28T15:08:40.498Z,41.12
2022-09-28T15:11:23.246Z,42.05
2022-09-28T15:13:53.925Z,42.34
2022-09-28T15:16:25.197Z,43.76
2022-09-28T15:19:18.745Z,43.67
2022-09-28T15:21:48.701Z,44.00
2022-09-28T15:24:30.619Z,44.37
2022-09-28T15:26:58.891Z,45.60
2022-09-28T15:29:31.293Z,45.67
2022-09-28T15:31:59.772Z,45.87
2022-09-28T15:34:46.785Z,45.67
2022-09-28T15:37:17.804Z,44.85
2022-09-28T15:39:48.185Z,44.14
2022-09-28T15:42:18.582Z,43.42
2022-09-28T15:45:03.061Z,42.95
2022-09-28T15:47:32.952Z,43.07
2022-09-28T15:50:03.944Z,42.86
2022-09-28T15:52:37.128Z,42.51
2022-09-28T15:55:20.318Z,42.10
2022-09-28T15:57:48.681Z,42.04
2022-09-28T16:00:28.835Z,41.85
2022-09-28T16:03:06.488Z,41.95
2022-09-28T16:05:40.912Z,41.83
2022-09-28T16:08:21.315Z,41.61
2022-09-28T16:11:04.625Z,41.71
2022-09-28T16:13:34.192Z,41.73
2022-09-28T16:16:02.442Z,41.58
2022-09-28T16:18:32.452Z,41.57
2022-09-28T16:21:37.570Z,41.33
2022-09-28T16:24:05.890Z,41.66
2022-09-28T16:26:37.697Z,41.71
2022-09-28T16:29:24.781Z,41.66
2022-09-28T16:31:53.538Z,41.49
2022-09-28T16:34:25.125Z,41.21
2022-09-28T16:36:53.021Z,41.23
2022-09-28T16:39:21.869Z,40.95
2022-09-28T16:41:55.703Z,40.92
2022-09-28T16:44:26.326Z,40.86
2022-09-28T16:46:57.083Z,40.66
2022-09-28T16:49:26.866Z,40.69
2022-09-28T16:51:55.139Z,40.64
2022-09-28T16:54:41.868Z,40.63
2022-09-28T16:57:13.673Z,40.54
2022-09-28T16:59:41.708Z,40.51
2022-09-28T17:02:46.243Z,40.44
2022-09-28T17:05:11.169Z,40.55
2022-09-28T17:07:39.077Z,40.32
2022-09-28T17:10:16.510Z,40.21
2022-09-28T17:12:46.181Z,40.10
2022-09-28T17:15:15.717Z,40.12
2022-09-28T17:17:43.642Z,40.16
2022-09-28T17:20:22.527Z,40.34
2022-09-28T17:22:50.812Z,40.36
2022-09-28T17:25:19.169Z,40.36
2022-09-28T17:27:49.274Z,40.28
2022-09-28T17:30:20.260Z,40.12
2022-09-28T17:32:51.587Z,40.43
2022-09-28T17:35:25.364Z,40.32
2022-09-28T17:37:53.827Z,40.22
2022-09-28T17:40:24.205Z,40.48
2022-09-28T17:42:56.100Z,40.58
2022-09-28T17:45:28.571Z,40.39
2022-09-28T17:47:57.364Z,40.21
2022-09-28T17:50:27.857Z,40.27
2022-09-28T17:52:57.902Z,40.16
2022-09-28T17:55:28.593Z,39.94
2022-09-28T17:57:58.501Z,40.10
2022-09-28T18:00:27.814Z,39.95
2022-09-28T18:02:56.268Z,40.04
2022-09-28T18:05:25.707Z,40.19
2022-09-28T18:07:53.883Z,39.96
2022-09-28T18:10:24.094Z,39.86
2022-09-28T18:12:52.237Z,39.97
2022-09-28T18:15:21.570Z,39.82
2022-09-28T18:17:50.176Z,39.72
2022-09-28T18:20:18.458Z,40.02
2022-09-28T18:22:46.533Z,39.94
2022-09-28T18:25:14.785Z,40.07
2022-09-28T18:27:43.175Z,40.10
2022-09-28T18:30:11.685Z,39.92
2022-09-28T18:32:41.306Z,39.97
2022-09-28T18:35:11.228Z,39.86
2022-09-28T18:37:40.001Z,39.90
2022-09-28T18:40:09.556Z,39.98
2022-09-28T18:42:37.688Z,40.07
2022-09-28T18:45:07.847Z,39.89
2022-09-28T18:47:36.194Z,39.87
2022-09-28T18:50:06.012Z,40.07
2022-09-28T18:52:37.105Z,39.62
2022-09-28T18:55:06.088Z,39.87
2022-09-28T18:57:34.291Z,39.92
2022-09-28T19:00:03.080Z,39.95
2022-09-28T19:02:31.312Z,39.96
2022-09-28T19:04:59.572Z,39.85
2022-09-28T19:07:29.241Z,39.82
2022-09-28T19:09:57.642Z,39.82
2022-09-28T19:12:26.073Z,39.88
2022-09-28T19:14:54.892Z,39.73
2022-09-28T19:17:22.866Z,39.85
2022-09-28T19:19:51.784Z,39.85
2022-09-28T19:22:19.821Z,39.81
2022-09-28T19:24:49.355Z,39.99
2022-09-28T19:27:17.971Z,40.20
2022-09-28T19:29:45.965Z,40.06
2022-09-28T19:32:15.297Z,39.77
2022-09-28T19:34:43.493Z,39.88
2022-09-28T19:37:11.370Z,39.88
2022-09-28T19:39:39.328Z,39.83
2022-09-28T19:42:08.872Z,40.18
2022-09-28T19:44:37.388Z,39.78
2022-09-28T19:47:08.723Z,39.90
2022-09-28T19:49:38.656Z,40.05
2022-09-28T19:52:17.231Z,39.68
2022-09-28T19:54:54.399Z,39.74
2022-09-28T19:57:24.768Z,39.92
2022-09-28T19:59:55.751Z,39.47
2022-09-28T20:02:25.894Z,39.66
2022-09-28T20:04:53.828Z,39.54
2022-09-28T20:07:21.924Z,39.24
2022-09-28T20:09:49.797Z,39.58
2022-09-28T20:12:18.051Z,39.54
2022-09-28T20:14:47.350Z,39.12
2022-09-28T20:17:15.228Z,39.37
2022-09-28T20:19:43.207Z,39.28
2022-09-28T20:22:12.147Z,39.11
2022-09-28T20:24:40.085Z,39.38
2022-09-28T20:27:08.093Z,39.27
2022-09-28T20:29:36.027Z,39.46
2022-09-28T20:32:05.246Z,39.36
2022-09-28T20:34:33.684Z,38.93
2022-09-28T20:37:01.684Z,39.11
2022-09-28T20:39:29.594Z,38.80
2022-09-28T20:41:57.491Z,38.99
2022-09-28T20:44:25.420Z,38.86
2022-09-28T20:46:53.463Z,38.70
2022-09-28T20:49:22.764Z,38.90
2022-09-28T20:51:50.653Z,38.80
2022-09-28T20:54:18.671Z,38.83
2022-09-28T20:56:48.234Z,38.73
2022-09-28T20:59:16.369Z,38.82
2022-09-28T21:01:44.569Z,38.92
2022-09-28T21:04:12.962Z,38.58
2022-09-28T21:06:43.318Z,38.67
2022-09-28T21:09:12.555Z,38.68
2022-09-28T21:11:41.615Z,38.98
2022-09-28T21:14:10.602Z,38.85
2022-09-28T21:16:39.189Z,38.96
2022-09-28T21:19:07.083Z,38.60
2022-09-28T21:21:35.071Z,38.72
2022-09-28T21:24:04.869Z,39.00
2022-09-28T21:26:33.525Z,38.80
2022-09-28T21:29:02.834Z,38.62
2022-09-28T21:31:32.690Z,38.97
2022-09-28T21:34:01.084Z,38.55
2022-09-28T21:36:28.948Z,39.02
2022-09-28T21:38:56.853Z,38.62
2022-09-28T21:41:26.699Z,39.17
2022-09-28T21:43:54.606Z,39.12
2022-09-28T21:46:22.682Z,39.02
2022-09-28T21:48:53.584Z,39.13
2022-09-28T21:51:22.209Z,39.30
2022-09-28T21:53:50.330Z,39.11
2022-09-28T21:56:18.647Z,39.32
2022-09-28T21:58:48.428Z,39.13
2022-09-28T22:01:18.346Z,39.06
2022-09-28T22:03:48.669Z,39.39
2022-09-28T22:06:18.463Z,39.37
2022-09-28T22:08:47.191Z,39.64
2022-09-28T22:11:17.673Z,39.57
2022-09-28T22:13:48.935Z,39.26
2022-09-28T22:16:18.793Z,39.10
2022-09-28T22:18:47.042Z,39.23
2022-09-28T22:21:18.413Z,39.55
2022-09-28T22:23:46.817Z,39.33
2022-09-28T22:26:17.931Z,39.44
2022-09-28T22:28:49.519Z,39.22
2022-09-28T22:31:18.945Z,39.18
2022-09-28T22:33:47.048Z,38.95
2022-09-28T22:36:17.035Z,39.05
2022-09-28T22:38:45.789Z,38.96
2022-09-28T22:41:15.882Z,39.14
2022-09-28T22:43:44.372Z,39.13
2022-09-28T22:46:15.098Z,39.36
2022-09-28T22:48:47.333Z,39.12
2022-09-28T22:51:15.844Z,39.17
2022-09-28T22:53:44.277Z,39.30
2022-09-28T22:56:18.213Z,39.24
2022-09-28T22:58:47.028Z,39.15
2022-09-28T23:01:18.755Z,38.95
2022-09-28T23:03:47.336Z,38.90
2022-09-28T23:06:17.383Z,38.60
2022-09-28T23:08:45.850Z,38.93
2022-09-28T23:11:13.847Z,38.93
2022-09-28T23:13:42.175Z,39.02
2022-09-28T23:16:13.284Z,38.73
2022-09-28T23:18:43.311Z,38.78
2022-09-28T23:21:15.309Z,38.95
2022-09-28T23:23:43.458Z,38.91
2022-09-28T23:26:13.127Z,39.28
2022-09-28T23:28:41.279Z,38.96
2022-09-28T23:31:10.166Z,39.08
2022-09-28T23:33:38.249Z,39.18
2022-09-28T23:36:08.445Z,38.90
2022-09-28T23:38:36.371Z,39.31
2022-09-28T23:41:04.576Z,39.42
2022-09-28T23:43:32.827Z,39.40
2022-09-28T23:46:00.738Z,39.30
2022-09-28T23:48:28.657Z,39.21
2022-09-28T23:50:56.668Z,38.93
2022-09-28T23:53:26.191Z,39.20
2022-09-28T23:55:54.171Z,39.22
2022-09-28T23:58:22.502Z,39.22
